Etusivu
METAR-TAF:

METAR-TAF

Lentoasemat :

Savonlinnan lentoasema

Savonlinna, Suomi

Leveyspiiri: 61-57N, Pituuspiiri: 028-57E, korkeus merenpinnasta: 95 m

Tämänhetkinen sää

Tämä raportti tehtiin 43 minuuttia sitten, kello 15.20 UTC
Tuuli 4 kn etelästä/lounaasta, vaihdellen etelän/kaakon ja lännen välillä
Lämpötila 20°C
Kosteus 32%
Ilmanpaine 1003 hPa
Näkyvyys 10 km tai enemmän
ei pilviä alle 1500 m:ssä eikä cumulonimbus-pilviä

METAR: EFSA 211520Z 21004KT 150V270 CAVOK 20/03 Q1003

Aika: 19:03 (16:03 UTC)

Sääennuste

Tämä raportti tehtiin 1 tunti ja 34 minuuttia sitten, kello 14.29 UTC
Ennuste voimassa 21. päivästä klo 15 UTC - 21. päivään klo 19 UTC
Tuuli 8 kn etelästä
Näkyvyys 10 km tai enemmän
ei pilviä alle 1500 m:ssä eikä cumulonimbus-pilviä

TAF: EFSA 211429Z 2115/2119 17008KT CAVOK

Säähavainnot ja -ennusteet yli 4000 lentoasemalta (METAR- ja TAF-raportit).

Käytössä olevat sääasemat on merkitty karttaan keltaisilla ja punaisilla pisteillä.

Aseta hiiri pisteen päälle nähdäksesi sääaseman nimen.

Klikkaa sitten nähdäksesi säähavainnot ja -ennusteet.

Kartan vaihtaminen: klikkaa mustalla rastilla varustettuja vihreitä pisteitä, niin voit zoomata sisään; viivalla varustettua vihreää pistettä, niin voit zoomata ulos tai vihreitä nuolia, niin pääset viereisille kartoille.


METAR-TAF: